Croton on Hudson, New York
Current Conditions -  °F | °C
As of 4:56 PM on Friday 31 Oct 2014 (Local Time) from KHPN Reporting Station
Broken Clouds Broken Clouds  
Wind Chill: 52°   Ceiling: 6000
Heat Index: 52°   Visibility: 10mi
Dew Point: 36°   Wind: 7mph
Humidity: 54%   Direction: NA
Pressure: 29.89"   Gusts: NA
Location:  41.2358°N, 73.9298°W
Report Text: KHPN 312056Z VRB06KT 10SM FEW040 SCT050 BKN060 11/02 A2989 RMK AO2 SLP126 T01110022 56008
Loading
Personal Weather Stations






























Interactive Weather Map
Tropical Storm Tracking
New forecast layout! Learn more

10-Day Weather Forecast

Advertisements
Track Severe Weather on mobile